Time;durP1;ratioP1;P1;durP2;ratioP2;P2;SDS_P1;SDS_P2;PMS_P1;PMS_P2;Temp;Humidity;BMP_temperature;BMP_pressure;BME280_temperature;BME280_humidity;BME280_pressure;Samples;Min_cycle;Max_cycle;Signal;HPM_P1;HPM_P2
2024/01/01 00:01:56;;;;;;;853.08;781.20;;;7.10;99.90;;;;;;5060823;28;20041;-81
2024/01/01 00:04:24;;;;;;;823.08;755.70;;;7.10;99.90;;;;;;5043809;28;20049;-81
2024/01/01 00:06:49;;;;;;;838.03;768.60;;;7.10;99.90;;;;;;5042773;28;20107;-80
2024/01/01 00:09:15;;;;;;;839.75;770.30;;;7.10;99.90;;;;;;5044684;28;20045;-80
2024/01/01 00:11:41;;;;;;;808.78;742.63;;;7.10;99.90;;;;;;5042491;28;20072;-80
2024/01/01 00:14:07;;;;;;;838.47;770.03;;;7.10;99.90;;;;;;5045834;28;20099;-80
2024/01/01 00:16:33;;;;;;;851.15;781.13;;;7.10;99.90;;;;;;5044235;28;20366;-80
2024/01/01 00:18:59;;;;;;;801.40;737.42;;;7.10;99.90;;;;;;5026946;28;20442;-80
2024/01/01 00:21:25;;;;;;;815.67;749.60;;;7.00;99.90;;;;;;5043350;28;20052;-80
2024/01/01 00:23:50;;;;;;;783.28;721.13;;;7.10;99.90;;;;;;5031636;28;20087;-80
2024/01/01 00:26:16;;;;;;;913.47;833.90;;;7.00;99.90;;;;;;5042571;28;20114;-80
2024/01/01 00:28:42;;;;;;;819.40;753.75;;;7.00;99.90;;;;;;5045821;28;20041;-81
2024/01/01 00:31:07;;;;;;;813.08;748.42;;;7.00;99.90;;;;;;5044482;28;20503;-80
2024/01/01 00:33:33;;;;;;;802.65;737.47;;;7.00;99.90;;;;;;5042740;28;20052;-80
2024/01/01 00:35:59;;;;;;;901.95;822.70;;;7.10;99.90;;;;;;5044642;28;20499;-80
2024/01/01 00:38:24;;;;;;;841.45;773.47;;;7.10;99.90;;;;;;5043556;28;20033;-80
2024/01/01 00:40:50;;;;;;;813.03;747.55;;;7.10;99.90;;;;;;5043667;28;20505;-80
2024/01/01 00:43:16;;;;;;;764.78;704.80;;;7.10;99.90;;;;;;5043900;28;20120;-80
2024/01/01 00:45:42;;;;;;;751.83;693.17;;;7.10;99.90;;;;;;5043545;28;20049;-80
2024/01/01 00:48:08;;;;;;;760.85;700.90;;;7.10;99.90;;;;;;5033389;28;20053;-80
2024/01/01 00:50:33;;;;;;;764.15;704.83;;;7.10;99.90;;;;;;5046400;28;20049;-79
2024/01/01 00:52:59;;;;;;;793.45;730.30;;;7.10;99.90;;;;;;5072953;28;20061;-79
2024/01/01 00:55:25;;;;;;;810.53;745.45;;;7.10;99.90;;;;;;5046498;28;20051;-80
2024/01/01 00:57:51;;;;;;;770.40;709.55;;;7.10;99.90;;;;;;5027999;28;20114;-79
2024/01/01 01:00:16;;;;;;;786.72;723.10;;;7.10;99.90;;;;;;5048384;28;20087;-79
2024/01/01 01:02:42;;;;;;;783.10;721.03;;;7.10;99.90;;;;;;5046722;28;20048;-79
2024/01/01 01:05:09;;;;;;;776.35;715.38;;;7.10;99.90;;;;;;5047093;28;20141;-79
2024/01/01 01:07:35;;;;;;;768.28;708.03;;;7.10;99.90;;;;;;5046876;28;20151;-79
2024/01/01 01:10:00;;;;;;;801.58;737.20;;;7.10;99.90;;;;;;5047132;28;20472;-79
2024/01/01 01:12:26;;;;;;;751.25;693.47;;;7.10;99.90;;;;;;5048215;28;20049;-79
2024/01/01 01:14:52;;;;;;;764.92;705.38;;;7.10;99.90;;;;;;5046896;28;20077;-79
2024/01/01 01:17:18;;;;;;;735.35;678.00;;;7.00;99.90;;;;;;5046901;28;20556;-79
2024/01/01 01:19:43;;;;;;;765.63;705.83;;;7.10;99.90;;;;;;5048460;28;20072;-79
2024/01/01 01:22:09;;;;;;;775.10;714.65;;;7.10;99.90;;;;;;5045398;28;20357;-79
2024/01/01 01:24:35;;;;;;;743.75;686.35;;;7.00;99.90;;;;;;5041772;28;20080;-80
2024/01/01 01:27:02;;;;;;;777.88;717.28;;;7.00;99.90;;;;;;5040621;28;20045;-80
2024/01/01 01:29:28;;;;;;;766.92;707.78;;;7.00;99.90;;;;;;5039422;28;20052;-80
2024/01/01 01:31:53;;;;;;;770.72;710.25;;;7.00;99.90;;;;;;5046671;28;20045;-79
2024/01/01 01:34:20;;;;;;;743.72;686.30;;;7.00;99.90;;;;;;5046770;28;20049;-80
2024/01/01 01:36:45;;;;;;;762.92;703.72;;;7.10;99.90;;;;;;5045145;28;20212;-80
2024/01/01 01:39:11;;;;;;;756.85;698.10;;;7.00;99.90;;;;;;5048146;28;20049;-80
2024/01/01 01:41:38;;;;;;;721.72;666.35;;;7.10;99.90;;;;;;5046601;28;20437;-80
2024/01/01 01:44:04;;;;;;;728.65;672.42;;;7.20;99.90;;;;;;5039811;28;20049;-80
2024/01/01 01:46:30;;;;;;;765.17;705.35;;;7.10;99.90;;;;;;5046020;28;20056;-79
2024/01/01 01:48:58;;;;;;;770.50;710.05;;;7.20;99.90;;;;;;5033180;28;20048;-80
2024/01/01 01:51:25;;;;;;;754.45;696.42;;;7.20;99.90;;;;;;5044885;28;20052;-80
2024/01/01 01:53:52;;;;;;;743.38;686.13;;;7.20;99.90;;;;;;5046710;28;20658;-80
2024/01/01 01:56:18;;;;;;;738.00;680.45;;;7.20;99.90;;;;;;5046741;28;20382;-80
2024/01/01 01:58:44;;;;;;;674.38;622.85;;;7.30;99.90;;;;;;5046214;28;20075;-80
2024/01/01 02:01:11;;;;;;;680.55;629.72;;;7.30;99.90;;;;;;5045924;28;20049;-80
2024/01/01 02:03:36;;;;;;;653.63;604.47;;;7.30;99.90;;;;;;5045790;28;20037;-80
2024/01/01 02:06:04;;;;;;;651.92;602.42;;;7.30;99.90;;;;;;5046846;28;20126;-80
2024/01/01 02:08:31;;;;;;;665.55;615.38;;;7.40;99.90;;;;;;5046071;28;20499;-80
2024/01/01 02:10:57;;;;;;;606.70;561.15;;;7.40;99.90;;;;;;5045398;28;20174;-80
2024/01/01 02:13:24;;;;;;;610.00;564.50;;;7.40;99.90;;;;;;5046113;28;20441;-80
2024/01/01 02:15:50;;;;;;;584.97;541.92;;;7.40;99.90;;;;;;5046910;28;20045;-80
2024/01/01 02:18:16;;;;;;;603.00;558.20;;;7.40;99.90;;;;;;5045124;28;20805;-80
2024/01/01 02:20:42;;;;;;;598.58;554.42;;;7.40;99.90;;;;;;5045093;28;20044;-80
2024/01/01 02:23:07;;;;;;;613.15;566.75;;;7.40;99.90;;;;;;5045656;28;20045;-79
2024/01/01 02:25:33;;;;;;;643.75;594.67;;;7.40;99.90;;;;;;5034110;28;20075;-80
2024/01/01 02:27:59;;;;;;;612.63;566.85;;;7.40;99.90;;;;;;5045306;28;20087;-80
2024/01/01 02:30:24;;;;;;;575.35;532.47;;;7.40;99.90;;;;;;5028537;28;20064;-80
2024/01/01 02:32:50;;;;;;;605.95;561.45;;;7.40;99.90;;;;;;5044742;28;20045;-80
2024/01/01 02:35:16;;;;;;;582.30;539.72;;;7.40;99.90;;;;;;5045619;28;20052;-80
2024/01/01 02:37:41;;;;;;;629.22;582.10;;;7.40;99.90;;;;;;5044592;28;20049;-80
2024/01/01 02:40:08;;;;;;;631.55;583.22;;;7.40;99.90;;;;;;5045442;28;20060;-79
2024/01/01 02:42:34;;;;;;;611.45;565.78;;;7.40;99.90;;;;;;5046563;28;20523;-80
2024/01/01 02:45:00;;;;;;;664.75;613.95;;;7.40;99.90;;;;;;5046995;28;20041;-80
2024/01/01 02:47:26;;;;;;;624.20;577.05;;;7.40;99.90;;;;;;5039005;28;20072;-80
2024/01/01 02:49:51;;;;;;;627.75;581.10;;;7.40;99.90;;;;;;5038924;28;20041;-79
2024/01/01 02:52:17;;;;;;;612.30;566.38;;;7.40;99.90;;;;;;5044358;28;20060;-80
2024/01/01 02:54:43;;;;;;;592.42;549.50;;;7.40;99.90;;;;;;5045915;28;20116;-80
2024/01/01 02:57:08;;;;;;;703.50;648.40;;;7.30;99.90;;;;;;5078560;28;20486;-80
2024/01/01 02:59:34;;;;;;;638.72;590.35;;;7.30;99.90;;;;;;5044910;28;20037;-80
2024/01/01 03:02:00;;;;;;;664.35;614.78;;;7.30;99.90;;;;;;5046344;28;20730;-79
2024/01/01 03:04:28;;;;;;;697.92;644.30;;;7.30;99.90;;;;;;5046505;28;20420;-79
2024/01/01 03:06:54;;;;;;;673.50;621.58;;;7.20;99.90;;;;;;5043589;28;20052;-80
2024/01/01 03:09:20;;;;;;;626.55;579.38;;;7.20;99.90;;;;;;5046304;28;20041;-79
2024/01/01 03:11:46;;;;;;;657.88;608.67;;;7.10;99.90;;;;;;5046183;28;20123;-79
2024/01/01 03:14:12;;;;;;;708.97;655.63;;;7.00;99.90;;;;;;5044487;28;20044;-80
2024/01/01 03:16:37;;;;;;;709.15;655.47;;;7.00;99.90;;;;;;5044976;28;20490;-79
2024/01/01 03:19:03;;;;;;;735.30;678.90;;;6.90;99.90;;;;;;5044817;28;20112;-79
2024/01/01 03:21:29;;;;;;;722.25;667.28;;;6.90;99.90;;;;;;5043271;28;20052;-79
2024/01/01 03:23:54;;;;;;;718.88;664.92;;;6.80;99.90;;;;;;5046104;28;20057;-79
2024/01/01 03:26:22;;;;;;;728.30;672.63;;;6.80;99.90;;;;;;5045966;28;20036;-79
2024/01/01 03:28:48;;;;;;;743.75;687.65;;;6.70;99.90;;;;;;5043883;28;20377;-79
2024/01/01 03:31:14;;;;;;;769.92;711.00;;;6.70;99.90;;;;;;5046123;28;20127;-79
2024/01/01 03:33:39;;;;;;;794.58;732.33;;;6.70;99.90;;;;;;5046015;28;20071;-79
2024/01/01 03:36:06;;;;;;;782.00;721.30;;;6.70;99.90;;;;;;5043130;28;20412;-79
2024/01/01 03:38:32;;;;;;;749.58;692.70;;;6.60;99.90;;;;;;5044498;28;20033;-79
2024/01/01 03:40:57;;;;;;;785.08;723.35;;;6.60;99.90;;;;;;5046359;28;20067;-79
2024/01/01 03:43:23;;;;;;;761.60;703.42;;;6.70;99.90;;;;;;5043345;28;20412;-79
2024/01/01 03:45:48;;;;;;;797.13;734.47;;;6.60;99.90;;;;;;5044549;28;20051;-79
2024/01/01 03:48:14;;;;;;;771.33;710.53;;;6.70;99.90;;;;;;5031550;28;20122;-79
2024/01/01 03:50:40;;;;;;;779.55;718.60;;;6.70;99.90;;;;;;5043185;28;20060;-79
2024/01/01 03:53:06;;;;;;;865.53;795.33;;;6.60;99.90;;;;;;5044856;28;20155;-79
2024/01/01 03:55:31;;;;;;;748.22;690.38;;;6.60;99.90;;;;;;5045427;28;20045;-79
2024/01/01 03:57:57;;;;;;;764.25;706.17;;;6.60;99.90;;;;;;5077838;28;20055;-79
2024/01/01 04:00:23;;;;;;;771.40;712.08;;;6.60;99.90;;;;;;5046327;28;20036;-78
2024/01/01 04:02:49;;;;;;;754.83;697.00;;;6.60;99.90;;;;;;5044762;28;20048;-79
2024/01/01 04:05:15;;;;;;;797.13;734.95;;;6.60;99.90;;;;;;5044329;28;20048;-79
2024/01/01 04:07:41;;;;;;;779.75;720.15;;;6.60;99.90;;;;;;5044676;28;20048;-79
2024/01/01 04:10:08;;;;;;;768.33;708.88;;;6.70;99.90;;;;;;5044424;28;20448;-79
2024/01/01 04:12:34;;;;;;;803.47;740.13;;;6.60;99.90;;;;;;5044369;28;20052;-79
2024/01/01 04:15:01;;;;;;;766.67;708.53;;;6.60;99.90;;;;;;5044877;28;20412;-79
2024/01/01 04:17:26;;;;;;;780.60;719.90;;;6.60;99.90;;;;;;5044934;28;20175;-79
2024/01/01 04:19:53;;;;;;;742.85;686.17;;;6.60;99.90;;;;;;5054432;28;20552;-79
2024/01/01 04:22:19;;;;;;;724.92;670.33;;;6.60;99.90;;;;;;5030953;28;20041;-79
2024/01/01 04:24:45;;;;;;;734.97;680.30;;;6.60;99.90;;;;;;5048253;28;20068;-79
2024/01/01 04:27:11;;;;;;;773.28;712.17;;;6.50;99.90;;;;;;5048153;28;20497;-79
2024/01/01 04:29:37;;;;;;;828.33;759.40;;;6.60;99.90;;;;;;5048597;28;20041;-79
2024/01/01 04:32:03;;;;;;;738.08;682.28;;;6.50;99.90;;;;;;5047503;28;20049;-79
2024/01/01 04:34:29;;;;;;;771.15;711.47;;;6.60;99.90;;;;;;5049603;28;20056;-79
2024/01/01 04:36:54;;;;;;;729.30;674.33;;;6.50;99.90;;;;;;5046877;28;20077;-79
2024/01/01 04:39:20;;;;;;;744.35;688.25;;;6.50;99.90;;;;;;5048799;28;20091;-78
2024/01/01 04:41:46;;;;;;;729.92;674.45;;;6.50;99.90;;;;;;5030821;28;20033;-79
2024/01/01 04:44:12;;;;;;;749.15;692.10;;;6.50;99.90;;;;;;5049353;28;20049;-79
2024/01/01 04:46:38;;;;;;;753.30;695.75;;;6.50;99.90;;;;;;5046690;28;20049;-79
2024/01/01 04:49:04;;;;;;;777.63;716.78;;;6.50;99.90;;;;;;5051009;28;20063;-78
2024/01/01 04:51:29;;;;;;;763.13;703.60;;;6.50;99.90;;;;;;5047694;28;20499;-78
2024/01/01 04:53:55;;;;;;;752.80;695.40;;;6.50;99.90;;;;;;5047256;28;20045;-79
2024/01/01 04:56:23;;;;;;;755.78;698.97;;;6.40;99.90;;;;;;5046910;28;20057;-79
2024/01/01 04:58:50;;;;;;;757.58;700.95;;;6.60;99.90;;;;;;5047767;28;20531;-79
2024/01/01 05:01:16;;;;;;;720.75;666.42;;;6.40;99.90;;;;;;5038707;28;20071;-79
2024/01/01 05:03:42;;;;;;;754.60;696.65;;;6.40;99.90;;;;;;5043754;28;20535;-79
2024/01/01 05:06:07;;;;;;;772.28;712.95;;;6.50;99.90;;;;;;5046524;28;20041;-79
2024/01/01 05:08:33;;;;;;;767.25;708.28;;;6.40;99.90;;;;;;5048580;28;20531;-79
2024/01/01 05:11:03;;;;;;;786.38;726.30;;;6.40;99.90;;;;;;5048702;28;20033;-79
2024/01/01 05:13:29;;;;;;;828.08;762.38;;;6.50;99.90;;;;;;5047752;28;20839;-79
2024/01/01 05:15:54;;;;;;;781.90;722.05;;;6.40;99.90;;;;;;5047032;28;20057;-79
2024/01/01 05:18:20;;;;;;;851.00;782.72;;;6.40;99.90;;;;;;5046922;28;20049;-79
2024/01/01 05:20:46;;;;;;;887.92;813.33;;;6.50;99.90;;;;;;5045619;28;20142;-79
2024/01/01 05:23:11;;;;;;;814.80;751.72;;;6.40;99.90;;;;;;5047110;28;20052;-79
2024/01/01 05:25:37;;;;;;;860.13;789.78;;;6.50;99.90;;;;;;5048072;28;20178;-79
2024/01/01 05:28:05;;;;;;;896.10;819.75;;;6.40;99.90;;;;;;5079954;28;20569;-79
2024/01/01 05:30:31;;;;;;;768.80;709.38;;;6.40;99.90;;;;;;5047642;28;20179;-79
2024/01/01 05:32:57;;;;;;;823.63;758.20;;;6.40;99.90;;;;;;5047391;28;20072;-79
2024/01/01 05:35:22;;;;;;;827.72;761.83;;;6.40;99.90;;;;;;5026243;28;20570;-79
2024/01/01 05:37:48;;;;;;;895.28;819.50;;;6.50;99.90;;;;;;5045039;28;20037;-79
2024/01/01 05:40:14;;;;;;;781.10;720.88;;;6.40;99.90;;;;;;5048417;28;20049;-78
2024/01/01 05:42:39;;;;;;;791.25;729.03;;;6.50;99.90;;;;;;5045550;28;20146;-78
2024/01/01 05:45:06;;;;;;;777.63;717.80;;;6.40;99.90;;;;;;5048680;28;20036;-79
2024/01/01 05:47:32;;;;;;;753.08;696.00;;;6.40;99.90;;;;;;5040098;28;20041;-79
2024/01/01 05:49:57;;;;;;;761.78;703.33;;;6.50;99.90;;;;;;5039991;28;20057;-79
2024/01/01 05:52:23;;;;;;;795.83;733.67;;;6.50;99.90;;;;;;5042618;28;20041;-79
2024/01/01 05:54:49;;;;;;;788.78;728.03;;;6.50;99.90;;;;;;5035709;28;20132;-79
2024/01/01 05:57:15;;;;;;;919.80;838.38;;;6.40;99.90;;;;;;5045319;28;20045;-79
2024/01/01 05:59:40;;;;;;;763.25;704.88;;;6.40;99.90;;;;;;5046170;28;20052;-79
2024/01/01 06:02:07;;;;;;;736.08;680.70;;;6.50;99.90;;;;;;5046230;28;20056;-79
2024/01/01 06:04:33;;;;;;;804.33;740.95;;;6.50;99.90;;;;;;5045566;28;20048;-79
2024/01/01 06:06:59;;;;;;;836.95;770.05;;;6.40;99.90;;;;;;5047069;28;20086;-79
2024/01/01 06:09:24;;;;;;;810.78;748.25;;;6.40;99.90;;;;;;5046354;28;20349;-79
2024/01/01 06:11:50;;;;;;;817.22;752.75;;;6.50;99.90;;;;;;5045053;28;20486;-79
2024/01/01 06:14:16;;;;;;;769.22;711.30;;;6.50;99.90;;;;;;5046232;28;20098;-79
2024/01/01 06:16:44;;;;;;;808.58;745.25;;;6.50;99.90;;;;;;5045429;28;20077;-79
2024/01/01 06:19:10;;;;;;;782.28;722.72;;;6.50;99.90;;;;;;5044597;28;20106;-79
2024/01/01 06:21:36;;;;;;;769.00;709.60;;;6.50;99.90;;;;;;5025359;28;20496;-80
2024/01/01 06:24:02;;;;;;;810.03;746.28;;;6.50;99.90;;;;;;5045972;28;20080;-79
2024/01/01 06:26:27;;;;;;;789.90;726.90;;;6.50;99.90;;;;;;5043341;28;20111;-79
2024/01/01 06:28:53;;;;;;;814.13;749.65;;;6.50;99.90;;;;;;5029780;28;20080;-79
2024/01/01 06:31:19;;;;;;;831.42;764.72;;;6.50;99.90;;;;;;5044529;28;20041;-79
2024/01/01 06:33:44;;;;;;;847.25;779.42;;;6.60;99.90;;;;;;5045415;28;20123;-79
2024/01/01 06:36:10;;;;;;;813.50;749.28;;;6.60;99.90;;;;;;5045966;28;20061;-79
2024/01/01 06:38:36;;;;;;;753.28;696.17;;;6.60;99.90;;;;;;5044869;28;20040;-79
2024/01/01 06:41:02;;;;;;;762.35;704.90;;;6.60;99.90;;;;;;5062405;28;20488;-80
2024/01/01 06:43:28;;;;;;;759.13;701.50;;;6.70;99.90;;;;;;5045000;28;20049;-79
2024/01/01 06:45:54;;;;;;;820.35;755.10;;;6.60;99.90;;;;;;5044119;28;20053;-80
2024/01/01 06:48:20;;;;;;;812.60;749.03;;;6.60;99.90;;;;;;5031825;28;20076;-80
2024/01/01 06:50:45;;;;;;;742.60;687.15;;;6.60;99.90;;;;;;5044643;28;20053;-79
2024/01/01 06:53:11;;;;;;;795.85;732.80;;;6.60;99.90;;;;;;5045820;28;20049;-80
2024/01/01 06:55:37;;;;;;;818.92;754.17;;;6.70;99.90;;;;;;5031791;28;20049;-79
2024/01/01 06:58:03;;;;;;;764.75;706.28;;;6.70;99.90;;;;;;5020877;28;20055;-79
2024/01/01 07:00:29;;;;;;;825.70;759.92;;;6.70;99.90;;;;;;5045500;28;20041;-79
2024/01/01 07:02:55;;;;;;;854.22;785.70;;;6.50;99.90;;;;;;5045469;28;20481;-79
2024/01/01 07:05:21;;;;;;;844.17;776.60;;;6.80;99.90;;;;;;5028378;28;20044;-80
2024/01/01 07:07:47;;;;;;;828.60;762.35;;;6.80;99.90;;;;;;5044997;28;20048;-79
2024/01/01 07:10:13;;;;;;;804.30;741.60;;;6.70;99.90;;;;;;5044964;28;20554;-78
2024/01/01 07:12:39;;;;;;;824.63;759.50;;;6.70;99.90;;;;;;5061130;28;20060;-79
2024/01/01 07:15:05;;;;;;;782.72;722.83;;;6.70;99.90;;;;;;5046246;28;20098;-79
2024/01/01 07:17:31;;;;;;;815.25;750.65;;;6.70;99.90;;;;;;5046334;28;20064;-79
2024/01/01 07:19:58;;;;;;;738.80;683.03;;;6.70;99.90;;;;;;5043912;28;20763;-79
2024/01/01 07:22:23;;;;;;;726.63;672.60;;;6.70;99.90;;;;;;5044243;28;20075;-79
2024/01/01 07:24:49;;;;;;;751.63;693.55;;;6.70;99.90;;;;;;5044124;28;20048;-79
2024/01/01 07:27:15;;;;;;;749.67;692.35;;;6.70;99.90;;;;;;5045918;28;20041;-79
2024/01/01 07:29:41;;;;;;;721.22;667.22;;;6.70;99.90;;;;;;5078063;28;20500;-79
2024/01/01 07:32:07;;;;;;;736.58;681.08;;;6.80;99.90;;;;;;5061442;28;20095;-79
2024/01/01 07:34:33;;;;;;;708.17;655.45;;;6.70;99.90;;;;;;5045432;28;20603;-79
2024/01/01 07:37:00;;;;;;;707.47;653.55;;;6.70;99.90;;;;;;5043793;28;20489;-79
2024/01/01 07:39:29;;;;;;;722.47;667.60;;;6.70;99.90;;;;;;5045743;28;20107;-79
2024/01/01 07:41:55;;;;;;;778.55;717.72;;;6.70;99.90;;;;;;5044035;28;20114;-79
2024/01/01 07:44:21;;;;;;;745.35;686.63;;;6.70;99.90;;;;;;5044516;28;20401;-79
2024/01/01 07:46:48;;;;;;;682.72;632.38;;;6.60;99.90;;;;;;5043125;28;20049;-79
2024/01/01 07:49:15;;;;;;;678.83;628.90;;;6.60;99.90;;;;;;5031763;28;20063;-79
2024/01/01 07:51:40;;;;;;;704.10;651.60;;;6.50;99.90;;;;;;5043487;28;20061;-79
2024/01/01 07:54:06;;;;;;;705.42;652.80;;;6.40;99.90;;;;;;5035910;28;20045;-80
2024/01/01 07:56:32;;;;;;;675.88;626.20;;;6.40;99.90;;;;;;5038567;28;20053;-79
2024/01/01 07:58:58;;;;;;;655.78;607.17;;;6.30;99.90;;;;;;5050430;28;20068;-79
2024/01/01 08:01:25;;;;;;;745.53;688.20;;;6.20;99.90;;;;;;5049242;28;20070;-79
2024/01/01 08:03:50;;;;;;;691.08;640.22;;;6.20;99.90;;;;;;5048019;28;20056;-80
2024/01/01 08:06:17;;;;;;;689.95;638.58;;;6.10;99.90;;;;;;5047381;28;20140;-79
2024/01/01 08:08:43;;;;;;;674.60;625.08;;;6.00;99.90;;;;;;5050173;28;20464;-79
2024/01/01 08:11:09;;;;;;;699.65;647.85;;;6.40;99.90;;;;;;5044639;28;20044;-79
2024/01/01 08:13:36;;;;;;;704.90;652.83;;;6.00;99.90;;;;;;5049639;28;20128;-80
2024/01/01 08:16:02;;;;;;;694.35;643.83;;;6.00;99.90;;;;;;5049434;28;20049;-79
2024/01/01 08:18:28;;;;;;;722.00;667.35;;;6.00;99.90;;;;;;5047519;28;20040;-80
2024/01/01 08:20:54;;;;;;;693.60;642.40;;;6.00;99.90;;;;;;5047501;28;20053;-80
2024/01/01 08:23:20;;;;;;;681.35;631.63;;;6.00;99.90;;;;;;5046259;28;20041;-79
2024/01/01 08:25:46;;;;;;;759.85;702.92;;;6.10;99.90;;;;;;5048060;28;20088;-79
2024/01/01 08:28:12;;;;;;;813.08;750.88;;;6.00;99.90;;;;;;5046668;28;20084;-80
2024/01/01 08:30:39;;;;;;;738.15;683.42;;;6.10;99.90;;;;;;5031756;28;20049;-80
2024/01/01 08:33:05;;;;;;;777.30;718.65;;;6.30;99.90;;;;;;5034077;28;20110;-81
2024/01/01 08:35:31;;;;;;;737.17;681.72;;;6.10;99.90;;;;;;5044801;28;20061;-81
2024/01/01 08:37:57;;;;;;;787.35;726.40;;;6.10;99.90;;;;;;5033247;28;20520;-80
2024/01/01 08:40:23;;;;;;;810.95;748.00;;;6.20;99.90;;;;;;5045177;28;20052;-80
2024/01/01 08:42:50;;;;;;;841.10;774.83;;;6.20;99.90;;;;;;5046724;28;20107;-79
2024/01/01 08:45:19;;;;;;;825.88;761.45;;;6.20;99.90;;;;;;5046396;28;20037;-79
2024/01/01 08:47:45;;;;;;;767.95;710.22;;;6.20;99.90;;;;;;5017651;28;20054;-80
2024/01/01 08:50:12;;;;;;;796.65;735.47;;;6.20;99.90;;;;;;5043113;28;20268;-80
2024/01/01 08:52:37;;;;;;;751.15;694.88;;;6.20;99.90;;;;;;5042832;28;20372;-79
2024/01/01 08:55:04;;;;;;;782.42;722.63;;;6.20;99.90;;;;;;5047601;28;20049;-79
2024/01/01 08:57:30;;;;;;;746.08;690.13;;;6.20;99.90;;;;;;5046605;28;20049;-81
2024/01/01 08:59:56;;;;;;;794.97;734.35;;;6.30;99.90;;;;;;5045916;28;20053;-79
2024/01/01 09:02:21;;;;;;;805.05;741.85;;;6.30;99.90;;;;;;5034963;28;20577;-80
2024/01/01 09:04:47;;;;;;;759.90;702.30;;;6.30;99.90;;;;;;5044505;28;20091;-79
2024/01/01 09:07:13;;;;;;;773.08;713.72;;;6.30;99.90;;;;;;5045647;28;20510;-80
2024/01/01 09:09:38;;;;;;;768.42;709.45;;;6.30;99.90;;;;;;5044023;28;20609;-79
2024/01/01 09:12:05;;;;;;;817.22;752.63;;;6.30;99.90;;;;;;5046034;28;20124;-79
2024/01/01 09:14:30;;;;;;;832.53;766.35;;;6.40;99.90;;;;;;5043442;28;20051;-80
2024/01/01 09:16:56;;;;;;;797.13;735.35;;;6.40;99.90;;;;;;5044103;28;20053;-79
2024/01/01 09:19:22;;;;;;;781.72;721.45;;;6.30;99.90;;;;;;5043656;28;20092;-80
2024/01/01 09:21:47;;;;;;;767.15;708.38;;;6.40;99.90;;;;;;5044051;28;20687;-80
2024/01/01 09:24:13;;;;;;;767.58;709.65;;;6.30;99.90;;;;;;5045560;28;20087;-79
2024/01/01 09:26:39;;;;;;;734.63;679.33;;;6.40;99.90;;;;;;5045635;28;20512;-79
2024/01/01 09:29:05;;;;;;;738.80;683.13;;;6.30;99.90;;;;;;5044222;28;20419;-80
2024/01/01 09:31:32;;;;;;;753.42;696.17;;;6.30;99.90;;;;;;5044231;28;20101;-79
2024/01/01 09:34:00;;;;;;;726.90;672.38;;;6.20;99.90;;;;;;5046060;28;20047;-80
2024/01/01 09:36:29;;;;;;;721.13;667.03;;;6.30;99.90;;;;;;5043410;28;20071;-80
2024/01/01 09:38:54;;;;;;;691.65;640.67;;;6.20;99.90;;;;;;5041977;28;20526;-80
2024/01/01 09:41:24;;;;;;;710.00;656.78;;;6.20;99.90;;;;;;5042937;28;20057;-81
2024/01/01 09:43:50;;;;;;;692.97;641.33;;;6.20;99.90;;;;;;5044405;28;20083;-79
2024/01/01 09:46:17;;;;;;;736.22;680.88;;;6.20;99.90;;;;;;5025169;28;20144;-80
2024/01/01 09:48:44;;;;;;;736.13;680.42;;;6.10;99.90;;;;;;5032081;28;20638;-80
2024/01/01 09:51:10;;;;;;;835.30;767.65;;;6.10;99.90;;;;;;5043395;28;20056;-80
2024/01/01 09:53:36;;;;;;;893.22;815.85;;;6.20;99.90;;;;;;5044043;28;20037;-81
2024/01/01 09:56:02;;;;;;;737.78;682.45;;;6.20;99.90;;;;;;5045592;28;20731;-81
2024/01/01 09:58:27;;;;;;;777.40;718.17;;;6.20;99.90;;;;;;5046016;28;20105;-81
2024/01/01 10:01:09;;;;;;;714.30;661.67;;;6.20;99.90;;;;;;5030078;28;20606;-80
2024/01/01 10:03:35;;;;;;;744.63;688.10;;;6.30;99.90;;;;;;5044853;28;20127;-80
2024/01/01 10:06:08;;;;;;;813.97;749.83;;;6.30;99.90;;;;;;5078198;28;20191;-80
2024/01/01 10:08:34;;;;;;;727.80;673.28;;;6.40;99.90;;;;;;5045819;28;20075;-80
2024/01/01 10:11:16;;;;;;;839.75;771.72;;;6.40;99.90;;;;;;5044886;28;20048;-80
2024/01/01 10:13:42;;;;;;;773.05;711.00;;;6.30;99.90;;;;;;5038630;28;20049;-80
2024/01/01 10:16:07;;;;;;;745.70;688.95;;;6.40;99.90;;;;;;5044267;28;20049;-80
2024/01/01 10:18:34;;;;;;;698.22;646.70;;;6.30;99.90;;;;;;5045713;28;20569;-80
2024/01/01 10:21:12;;;;;;;920.22;836.47;;;6.30;99.90;;;;;;5045154;28;20049;-80
2024/01/01 10:23:42;;;;;;;702.58;650.03;;;6.40;99.90;;;;;;5045770;28;20523;-80
2024/01/01 10:26:11;;;;;;;774.38;714.78;;;6.50;99.90;;;;;;5047614;28;20055;-80
2024/01/01 10:28:41;;;;;;;736.17;680.50;;;6.50;99.90;;;;;;5041719;28;20049;-80
2024/01/01 10:31:07;;;;;;;771.92;711.33;;;6.60;99.90;;;;;;5044958;28;20095;-80
2024/01/01 10:33:36;;;;;;;784.95;722.67;;;6.70;99.90;;;;;;5046431;28;20067;-80
2024/01/01 10:36:03;;;;;;;702.80;650.22;;;6.70;99.90;;;;;;5045300;28;20417;-81
2024/01/01 10:38:31;;;;;;;716.15;663.10;;;6.70;99.90;;;;;;5043856;28;20052;-78
2024/01/01 10:40:59;;;;;;;699.17;647.67;;;6.80;99.90;;;;;;5045891;28;20088;-79
2024/01/01 10:43:27;;;;;;;740.22;684.30;;;6.80;99.90;;;;;;5061468;28;20087;-80
2024/01/01 10:46:03;;;;;;;702.92;651.00;;;6.80;99.90;;;;;;5044393;28;20160;-80
2024/01/01 10:48:33;;;;;;;712.22;658.78;;;6.90;99.90;;;;;;5031243;28;20064;-79
2024/01/01 10:51:04;;;;;;;700.15;647.42;;;7.00;99.90;;;;;;5031602;28;20057;-80
2024/01/01 10:53:58;;;;;;;738.97;683.38;;;7.00;99.90;;;;;;5045288;28;20485;-80
2024/01/01 10:56:37;;;;;;;726.58;671.28;;;7.10;99.90;;;;;;5076784;28;20049;-81
2024/01/01 10:59:20;;;;;;;718.38;663.97;;;7.20;99.90;;;;;;5037404;28;20091;-81
2024/01/01 11:01:51;;;;;;;722.25;668.53;;;7.20;99.90;;;;;;5045249;28;20084;-81
2024/01/01 11:04:22;;;;;;;702.63;649.58;;;7.40;99.90;;;;;;5045160;28;20488;-81
2024/01/01 11:06:51;;;;;;;715.30;661.55;;;7.30;99.90;;;;;;5042891;28;20033;-81
2024/01/01 11:09:20;;;;;;;755.38;698.10;;;7.40;99.90;;;;;;5044745;28;20037;-81
2024/01/01 11:11:59;;;;;;;704.08;651.25;;;7.40;99.90;;;;;;5044240;28;20060;-80
2024/01/01 11:14:34;;;;;;;745.15;687.42;;;7.40;99.90;;;;;;5022536;28;20068;-81
2024/01/01 11:17:06;;;;;;;828.90;758.50;;;7.40;99.90;;;;;;5045079;28;20128;-80
2024/01/01 11:19:46;;;;;;;720.50;665.72;;;7.40;99.90;;;;;;5028037;28;20095;-80
2024/01/01 11:22:20;;;;;;;761.40;702.20;;;7.40;99.90;;;;;;5043868;28;20048;-80
2024/01/01 11:24:50;;;;;;;756.30;697.70;;;7.40;99.90;;;;;;5044132;28;20506;-80
2024/01/01 11:27:31;;;;;;;726.75;671.53;;;7.40;99.90;;;;;;5060360;28;20048;-81
2024/01/01 11:30:03;;;;;;;743.97;687.88;;;7.40;99.90;;;;;;5062470;28;20479;-80
2024/01/01 11:32:33;;;;;;;658.92;610.40;;;7.40;99.90;;;;;;5027740;28;20400;-81
2024/01/01 11:35:12;;;;;;;711.63;657.88;;;7.30;99.90;;;;;;5044486;28;20049;-81
2024/01/01 11:37:44;;;;;;;731.58;676.28;;;7.30;99.90;;;;;;5027557;28;20045;-81
2024/01/01 11:40:14;;;;;;;702.10;649.72;;;7.30;99.90;;;;;;5077360;28;20045;-82
2024/01/01 11:42:45;;;;;;;742.47;686.05;;;7.30;99.90;;;;;;5027975;28;20086;-83
2024/01/01 11:45:17;;;;;;;745.78;687.80;;;7.40;99.90;;;;;;5045331;28;20053;-83
2024/01/01 11:47:48;;;;;;;740.97;682.88;;;7.40;99.90;;;;;;5014635;28;20033;-83
2024/01/01 11:50:31;;;;;;;834.75;764.47;;;7.40;99.90;;;;;;5074848;28;20040;-82
2024/01/01 11:53:00;;;;;;;661.88;611.55;;;7.30;99.90;;;;;;5046553;28;20045;-82
2024/01/01 11:55:29;;;;;;;667.35;617.92;;;7.20;99.90;;;;;;5043881;28;20045;-81
2024/01/01 11:57:58;;;;;;;697.83;646.00;;;7.20;99.90;;;;;;5039383;28;20049;-81
2024/01/01 12:00:28;;;;;;;744.58;688.55;;;7.10;99.90;;;;;;5032121;28;20390;-82
2024/01/01 12:02:59;;;;;;;748.13;690.38;;;7.10;99.90;;;;;;5075902;28;20194;-82
2024/01/01 12:05:25;;;;;;;726.92;671.78;;;7.10;99.90;;;;;;5045253;28;20044;-83
2024/01/01 12:07:55;;;;;;;763.90;705.05;;;7.20;99.90;;;;;;5041127;28;20049;-82
2024/01/01 12:10:24;;;;;;;726.17;670.88;;;7.30;99.90;;;;;;5045701;28;20180;-82
2024/01/01 12:12:59;;;;;;;774.25;714.20;;;7.40;99.90;;;;;;5047154;28;20404;-82
2024/01/01 12:15:30;;;;;;;766.42;706.83;;;7.50;99.90;;;;;;5043783;28;20120;-82
2024/01/01 12:17:56;;;;;;;731.85;676.97;;;7.50;99.90;;;;;;5036901;28;20397;-82